createdAt,value
2019-05-21T00:01:29.782Z,14.38
2019-05-21T00:06:36.004Z,15.95
2019-05-21T00:11:41.243Z,14.13
2019-05-21T00:16:46.422Z,14.58
2019-05-21T00:21:51.669Z,12.13
2019-05-21T00:26:56.954Z,9.15
2019-05-21T00:32:38.004Z,8.53
2019-05-21T00:38:18.954Z,8.98
2019-05-21T00:43:46.422Z,8.45
2019-05-21T00:48:51.663Z,9.08
2019-05-21T00:53:57.196Z,9.73
2019-05-21T00:59:02.432Z,8.50
2019-05-21T01:04:07.694Z,8.35
2019-05-21T01:09:12.939Z,9.70
2019-05-21T01:14:18.183Z,10.48
2019-05-21T01:19:23.419Z,10.08
2019-05-21T01:24:28.681Z,9.55
2019-05-21T01:29:33.902Z,9.33
2019-05-21T01:34:39.154Z,10.30
2019-05-21T01:39:44.401Z,10.65
2019-05-21T01:44:49.632Z,11.85
2019-05-21T01:49:55.146Z,12.43
2019-05-21T01:55:00.744Z,11.60
2019-05-21T02:00:07.247Z,13.10
2019-05-21T02:05:12.672Z,14.10
2019-05-21T02:10:18.397Z,16.60
2019-05-21T02:15:23.639Z,17.20
2019-05-21T02:20:28.896Z,18.10
2019-05-21T02:25:34.177Z,18.20
2019-05-21T02:30:39.430Z,20.15
2019-05-21T02:35:54.157Z,22.22
2019-05-21T02:40:51.657Z,21.48
2019-05-21T02:45:56.901Z,22.95
2019-05-21T02:51:02.184Z,25.30
2019-05-21T02:56:07.431Z,28.67
2019-05-21T03:01:31.546Z,37.88
2019-05-21T03:06:37.350Z,43.33
2019-05-21T03:11:42.737Z,46.02
2019-05-21T03:16:48.485Z,44.40
2019-05-21T03:21:53.826Z,43.05
2019-05-21T03:26:59.171Z,215.45
2019-05-21T03:32:05.005Z,47.78
2019-05-21T03:37:11.197Z,57.30
2019-05-21T03:42:16.419Z,66.75
2019-05-21T03:47:21.894Z,72.70
2019-05-21T03:52:27.017Z,67.80
2019-05-21T03:57:32.246Z,73.02
2019-05-21T04:02:37.326Z,74.03
2019-05-21T04:07:42.671Z,60.83
2019-05-21T04:13:06.472Z,60.78
2019-05-21T04:18:16.805Z,44.35
2019-05-21T04:23:21.943Z,63.60
2019-05-21T04:28:27.113Z,64.92
2019-05-21T04:33:32.338Z,71.17
2019-05-21T04:38:37.552Z,68.57
2019-05-21T04:43:42.787Z,68.78
2019-05-21T04:48:48.105Z,68.62
2019-05-21T04:53:53.393Z,62.08
2019-05-21T04:58:58.486Z,50.80
2019-05-21T05:04:03.676Z,52.83
2019-05-21T05:09:08.894Z,50.43
2019-05-21T05:14:14.306Z,47.00
2019-05-21T05:19:20.568Z,48.00
2019-05-21T05:24:25.700Z,54.90
2019-05-21T05:29:31.156Z,52.95
2019-05-21T05:34:36.621Z,56.80
2019-05-21T05:39:42.070Z,56.80
2019-05-21T05:44:47.223Z,47.60
2019-05-21T05:49:54.120Z,63.87
2019-05-21T05:54:59.274Z,58.78
2019-05-21T06:00:05.311Z,50.75
2019-05-21T06:05:11.536Z,42.95
2019-05-21T06:10:16.818Z,44.53
2019-05-21T06:15:22.136Z,38.48
2019-05-21T06:20:27.459Z,41.98
2019-05-21T06:25:32.735Z,32.05
2019-05-21T06:30:38.258Z,32.67
2019-05-21T06:35:43.404Z,34.40
2019-05-21T06:40:48.674Z,31.93
2019-05-21T06:45:54.453Z,34.10
2019-05-21T06:51:01.415Z,35.80
2019-05-21T06:56:07.793Z,44.00
2019-05-21T07:01:13.144Z,36.15
2019-05-21T07:06:18.373Z,30.32
2019-05-21T07:11:23.592Z,31.82
2019-05-21T07:16:29.776Z,33.60
2019-05-21T07:21:35.968Z,34.03
2019-05-21T07:26:42.311Z,36.38
2019-05-21T07:31:47.503Z,38.23
2019-05-21T07:36:52.728Z,44.48
2019-05-21T07:41:59.059Z,46.23
2019-05-21T07:47:04.397Z,42.27
2019-05-21T07:52:09.633Z,34.43
2019-05-21T07:57:15.603Z,28.00
2019-05-21T08:02:20.826Z,33.40
2019-05-21T08:07:26.280Z,38.58
2019-05-21T08:12:39.089Z,38.20
2019-05-21T08:17:38.348Z,41.18
2019-05-21T08:22:43.924Z,43.80
2019-05-21T08:27:49.075Z,41.90
2019-05-21T08:32:54.360Z,43.73
2019-05-21T08:38:00.230Z,43.85
2019-05-21T08:43:05.893Z,40.25
2019-05-21T08:48:11.175Z,36.05
2019-05-21T08:53:16.380Z,38.45
2019-05-21T08:58:21.602Z,33.63
2019-05-21T09:03:27.481Z,27.98
2019-05-21T09:08:32.699Z,30.08
2019-05-21T09:13:37.851Z,29.50
2019-05-21T09:18:43.026Z,35.63
2019-05-21T09:23:48.281Z,32.90
2019-05-21T09:28:53.815Z,34.20
2019-05-21T09:33:58.872Z,33.15
2019-05-21T09:39:05.268Z,35.13
2019-05-21T09:44:12.264Z,30.02
2019-05-21T09:49:17.499Z,25.30
2019-05-21T09:54:22.722Z,27.35
2019-05-21T10:00:02.943Z,26.52
2019-05-21T10:05:09.225Z,27.90
2019-05-21T10:10:14.881Z,24.55
2019-05-21T10:15:20.486Z,26.80
2019-05-21T10:20:25.716Z,25.75
2019-05-21T10:25:30.970Z,27.95
2019-05-21T10:30:36.203Z,26.27
2019-05-21T10:35:42.440Z,29.82
2019-05-21T10:40:47.777Z,25.68
2019-05-21T10:45:53.336Z,25.02
2019-05-21T10:50:58.552Z,20.75
2019-05-21T10:56:03.823Z,22.32
2019-05-21T11:01:16.973Z,23.02
2019-05-21T11:06:22.226Z,22.00
2019-05-21T11:11:28.825Z,19.73
2019-05-21T11:16:34.064Z,16.90
2019-05-21T11:21:39.305Z,16.55
2019-05-21T11:26:44.560Z,18.85
2019-05-21T11:31:57.177Z,19.35
2019-05-21T11:36:57.061Z,18.07
2019-05-21T11:42:02.681Z,16.57
2019-05-21T11:47:07.937Z,15.13
2019-05-21T11:52:13.548Z,15.98
2019-05-21T11:57:18.777Z,15.05
2019-05-21T12:02:24.268Z,14.00
2019-05-21T12:07:29.421Z,12.07
2019-05-21T12:12:34.984Z,14.47
2019-05-21T12:22:53.098Z,16.30
2019-05-21T12:27:58.647Z,16.73
2019-05-21T12:33:03.872Z,15.68
2019-05-21T12:38:09.085Z,13.78
2019-05-21T12:43:14.628Z,14.43
2019-05-21T12:48:19.779Z,14.93
2019-05-21T12:53:24.934Z,13.13
2019-05-21T12:58:30.084Z,13.68
2019-05-21T13:03:35.225Z,13.20
2019-05-21T13:08:40.789Z,12.85
2019-05-21T13:13:46.014Z,13.55
2019-05-21T13:18:51.460Z,12.60
2019-05-21T13:23:56.744Z,11.57
2019-05-21T13:29:02.002Z,12.23
2019-05-21T13:34:07.425Z,11.55
2019-05-21T13:39:13.031Z,11.22
2019-05-21T13:44:18.254Z,10.93
2019-05-21T13:49:23.490Z,10.88
2019-05-21T13:54:28.715Z,9.95
2019-05-21T13:59:34.770Z,9.75
2019-05-21T14:04:39.989Z,10.10
2019-05-21T14:09:45.799Z,9.83
2019-05-21T14:14:51.231Z,10.28
2019-05-21T14:19:56.488Z,9.68
2019-05-21T14:25:02.133Z,9.83
2019-05-21T14:30:09.950Z,10.50
2019-05-21T14:35:15.282Z,10.63
2019-05-21T14:40:31.552Z,10.08
2019-05-21T14:45:33.461Z,10.15
2019-05-21T14:50:35.781Z,9.80
2019-05-21T14:55:41.003Z,10.23
2019-05-21T15:00:46.582Z,10.13
2019-05-21T15:05:51.833Z,11.28
2019-05-21T15:10:57.079Z,10.18
2019-05-21T15:16:02.316Z,9.23
2019-05-21T15:21:12.707Z,8.65
2019-05-21T15:26:18.272Z,8.05
2019-05-21T15:31:24.643Z,8.83
2019-05-21T15:36:29.914Z,7.62
2019-05-21T15:41:35.408Z,7.78
2019-05-21T15:46:48.143Z,6.35
2019-05-21T15:51:47.657Z,10.53
2019-05-21T15:56:53.271Z,10.63
2019-05-21T16:01:58.888Z,11.80
2019-05-21T16:07:05.173Z,11.18
2019-05-21T16:12:10.390Z,11.28
2019-05-21T16:17:15.547Z,12.55
2019-05-21T16:22:21.036Z,12.07
2019-05-21T16:27:26.223Z,11.08
2019-05-21T16:32:32.132Z,11.83
2019-05-21T16:37:37.356Z,10.93
2019-05-21T16:42:42.603Z,8.88
2019-05-21T16:47:48.230Z,9.70
2019-05-21T16:52:53.701Z,9.83
2019-05-21T16:57:58.955Z,12.73
2019-05-21T17:03:04.205Z,10.25
2019-05-21T17:08:09.446Z,11.28
2019-05-21T17:13:14.935Z,8.75
2019-05-21T17:18:21.758Z,9.98
2019-05-21T17:23:26.984Z,10.05
2019-05-21T17:28:32.522Z,9.35
2019-05-21T17:33:38.134Z,9.85
2019-05-21T17:38:43.379Z,11.03
2019-05-21T17:43:48.935Z,13.48
2019-05-21T17:48:54.151Z,10.78
2019-05-21T17:54:00.918Z,11.25
2019-05-21T17:59:06.115Z,9.58
2019-05-21T18:04:13.777Z,11.48
2019-05-21T18:09:20.517Z,10.63
2019-05-21T18:14:26.096Z,12.25
2019-05-21T18:19:31.468Z,11.97
2019-05-21T18:24:37.325Z,10.65
2019-05-21T18:29:43.420Z,13.80
2019-05-21T18:34:48.765Z,12.00
2019-05-21T18:39:54.297Z,12.75
2019-05-21T18:44:59.437Z,12.05
2019-05-21T18:50:05.043Z,10.40
2019-05-21T18:55:10.769Z,11.28
2019-05-21T19:00:16.460Z,11.05
2019-05-21T19:05:21.698Z,12.82
2019-05-21T19:10:27.065Z,14.30
2019-05-21T19:15:32.263Z,13.28
2019-05-21T19:20:37.783Z,14.07
2019-05-21T19:25:43.026Z,16.07
2019-05-21T19:30:48.443Z,14.93
2019-05-21T19:35:53.526Z,14.05
2019-05-21T19:40:58.681Z,15.60
2019-05-21T19:46:03.833Z,15.40
2019-05-21T19:51:09.906Z,11.80
2019-05-21T19:56:15.972Z,13.48
2019-05-21T20:01:21.665Z,11.55
2019-05-21T20:06:27.184Z,10.85
2019-05-21T20:11:32.715Z,10.15
2019-05-21T20:16:39.496Z,7.47
2019-05-21T20:21:45.822Z,7.83
2019-05-21T20:26:51.563Z,8.78
2019-05-21T20:31:56.699Z,8.35
2019-05-21T20:37:03.362Z,9.45
2019-05-21T20:42:10.171Z,10.60
2019-05-21T20:47:16.277Z,11.08
2019-05-21T20:52:22.266Z,14.85
2019-05-21T20:57:28.799Z,14.18
2019-05-21T21:02:35.321Z,16.23
2019-05-21T21:07:41.268Z,18.92
2019-05-21T21:12:47.083Z,17.02
2019-05-21T21:17:52.627Z,19.37
2019-05-21T21:22:57.717Z,20.27
2019-05-21T21:28:03.079Z,21.62
2019-05-21T21:33:08.505Z,18.82
2019-05-21T21:38:17.370Z,21.90
2019-05-21T21:43:23.176Z,21.52
2019-05-21T21:48:29.908Z,25.45
2019-05-21T21:53:36.380Z,23.87
2019-05-21T21:58:41.741Z,22.82
2019-05-21T22:03:47.060Z,25.25
2019-05-21T22:08:52.859Z,25.52
2019-05-21T22:13:58.314Z,25.12
2019-05-21T22:19:04.175Z,25.45
2019-05-21T22:24:09.963Z,24.80
2019-05-21T22:29:15.792Z,24.90
2019-05-21T22:34:22.060Z,26.50
2019-05-21T22:39:30.586Z,26.85
2019-05-21T22:44:35.792Z,27.93
2019-05-21T22:49:41.593Z,26.00
2019-05-21T22:54:47.055Z,28.92
2019-05-21T22:59:52.212Z,25.77
2019-05-21T23:04:57.511Z,27.25
2019-05-21T23:10:04.756Z,27.77
2019-05-21T23:15:24.548Z,27.80
2019-05-21T23:20:21.416Z,25.97
2019-05-21T23:25:28.499Z,27.42
2019-05-21T23:30:34.475Z,27.35
2019-05-21T23:35:41.283Z,26.48
2019-05-21T23:40:48.685Z,26.02
2019-05-21T23:45:54.375Z,28.05
2019-05-21T23:50:59.871Z,24.25
2019-05-21T23:56:05.132Z,24.23
